Lauro de Freitas, Brazil
Current Conditions -  °F | °C
As of 9:00 AM on Tuesday 27 Jan 2015 (Local Time) from SBSV Reporting Station
Scattered Clouds Scattered Clouds  
Wind Chill: 84°   Ceiling: Unl
Heat Index: 88°   Visibility: 6mi
Dew Point: 70°   Wind: 10mph
Humidity: 62%   Direction: 100°E
Pressure: 30"   Gusts: NA
Location:  12.89°S, 38.33°W
Report Text: SBSV 271200Z 10009KT 9999 SCT017 29/21 Q1016
Loading
Personal Weather Stations






























Interactive Weather Map New forecast layout! Learn more

10-Day Weather Forecast

Advertisements
Track Severe Weather on mobile